sensor_id;sensor_type;location;lat;lon;timestamp;temperature;humidity
25108;DHT22;13090;53.422;7.670;2022-09-09T00:03:44;16.60;89.70
25108;DHT22;13090;53.422;7.670;2022-09-09T00:08:58;16.50;90.00
25108;DHT22;13090;53.422;7.670;2022-09-09T00:14:11;16.40;90.10
25108;DHT22;13090;53.422;7.670;2022-09-09T00:19:21;16.40;90.20
25108;DHT22;13090;53.422;7.670;2022-09-09T00:24:31;16.40;90.10
25108;DHT22;13090;53.422;7.670;2022-09-09T00:29:39;16.40;90.10
25108;DHT22;13090;53.422;7.670;2022-09-09T00:34:48;16.40;90.10
25108;DHT22;13090;53.422;7.670;2022-09-09T00:39:56;16.30;90.10
25108;DHT22;13090;53.422;7.670;2022-09-09T00:45:12;16.30;90.20
25108;DHT22;13090;53.422;7.670;2022-09-09T00:50:33;16.20;90.20
25108;DHT22;13090;53.422;7.670;2022-09-09T00:55:42;16.20;90.30
25108;DHT22;13090;53.422;7.670;2022-09-09T01:00:50;16.10;90.20
25108;DHT22;13090;53.422;7.670;2022-09-09T01:06:13;16.00;90.30
25108;DHT22;13090;53.422;7.670;2022-09-09T01:11:22;16.00;90.40
25108;DHT22;13090;53.422;7.670;2022-09-09T01:16:27;16.00;90.30
25108;DHT22;13090;53.422;7.670;2022-09-09T01:21:39;16.00;90.20
25108;DHT22;13090;53.422;7.670;2022-09-09T01:26:46;15.90;90.40
25108;DHT22;13090;53.422;7.670;2022-09-09T01:31:55;15.90;90.50
25108;DHT22;13090;53.422;7.670;2022-09-09T01:37:02;15.90;90.60
25108;DHT22;13090;53.422;7.670;2022-09-09T01:42:09;15.90;90.70
25108;DHT22;13090;53.422;7.670;2022-09-09T01:47:12;15.90;90.70
25108;DHT22;13090;53.422;7.670;2022-09-09T01:52:14;15.90;90.70
25108;DHT22;13090;53.422;7.670;2022-09-09T01:57:24;15.90;90.70
25108;DHT22;13090;53.422;7.670;2022-09-09T02:02:30;15.90;90.70
25108;DHT22;13090;53.422;7.670;2022-09-09T02:07:39;15.90;90.70
25108;DHT22;13090;53.422;7.670;2022-09-09T02:12:47;15.90;90.70
25108;DHT22;13090;53.422;7.670;2022-09-09T02:17:52;15.90;90.60
25108;DHT22;13090;53.422;7.670;2022-09-09T02:22:59;15.90;90.90
25108;DHT22;13090;53.422;7.670;2022-09-09T02:28:07;15.80;90.50
25108;DHT22;13090;53.422;7.670;2022-09-09T02:33:12;15.80;90.50
25108;DHT22;13090;53.422;7.670;2022-09-09T02:38:17;15.70;90.50
25108;DHT22;13090;53.422;7.670;2022-09-09T02:43:21;15.60;90.50
25108;DHT22;13090;53.422;7.670;2022-09-09T02:48:30;15.60;90.60
25108;DHT22;13090;53.422;7.670;2022-09-09T02:53:39;15.50;90.70
25108;DHT22;13090;53.422;7.670;2022-09-09T02:58:45;15.50;90.70
25108;DHT22;13090;53.422;7.670;2022-09-09T03:03:47;15.50;90.60
25108;DHT22;13090;53.422;7.670;2022-09-09T03:08:50;15.50;90.70
25108;DHT22;13090;53.422;7.670;2022-09-09T03:13:54;15.50;90.70
25108;DHT22;13090;53.422;7.670;2022-09-09T03:18:57;15.40;90.90
25108;DHT22;13090;53.422;7.670;2022-09-09T03:24:00;15.40;90.90
25108;DHT22;13090;53.422;7.670;2022-09-09T03:29:05;15.50;91.00
25108;DHT22;13090;53.422;7.670;2022-09-09T03:34:08;15.50;91.00
25108;DHT22;13090;53.422;7.670;2022-09-09T03:39:10;15.50;91.00
25108;DHT22;13090;53.422;7.670;2022-09-09T03:44:15;15.60;91.00
25108;DHT22;13090;53.422;7.670;2022-09-09T03:49:17;15.60;91.00
25108;DHT22;13090;53.422;7.670;2022-09-09T03:54:20;15.60;90.90
25108;DHT22;13090;53.422;7.670;2022-09-09T03:59:24;15.60;90.90
25108;DHT22;13090;53.422;7.670;2022-09-09T04:04:27;15.70;91.00
25108;DHT22;13090;53.422;7.670;2022-09-09T04:09:30;15.70;90.90
25108;DHT22;13090;53.422;7.670;2022-09-09T04:14:41;15.80;91.00
25108;DHT22;13090;53.422;7.670;2022-09-09T04:19:48;15.80;91.00
25108;DHT22;13090;53.422;7.670;2022-09-09T04:24:50;15.80;90.90
25108;DHT22;13090;53.422;7.670;2022-09-09T04:29:54;15.80;90.80
25108;DHT22;13090;53.422;7.670;2022-09-09T04:34:57;15.80;90.80
25108;DHT22;13090;53.422;7.670;2022-09-09T04:40:01;15.80;90.80
25108;DHT22;13090;53.422;7.670;2022-09-09T04:45:09;15.80;90.80
25108;DHT22;13090;53.422;7.670;2022-09-09T04:50:12;15.80;90.90
25108;DHT22;13090;53.422;7.670;2022-09-09T04:55:14;15.80;91.00
25108;DHT22;13090;53.422;7.670;2022-09-09T05:00:19;15.90;91.10
25108;DHT22;13090;53.422;7.670;2022-09-09T05:05:23;15.90;91.10
25108;DHT22;13090;53.422;7.670;2022-09-09T05:10:26;16.00;91.20
25108;DHT22;13090;53.422;7.670;2022-09-09T05:15:30;16.00;91.10
25108;DHT22;13090;53.422;7.670;2022-09-09T05:20:33;16.10;91.20
25108;DHT22;13090;53.422;7.670;2022-09-09T05:25:35;16.20;91.10
25108;DHT22;13090;53.422;7.670;2022-09-09T05:30:39;16.30;91.10
25108;DHT22;13090;53.422;7.670;2022-09-09T05:35:42;16.30;91.10
25108;DHT22;13090;53.422;7.670;2022-09-09T05:40:47;16.30;91.10
25108;DHT22;13090;53.422;7.670;2022-09-09T05:46:01;16.40;91.00
25108;DHT22;13090;53.422;7.670;2022-09-09T05:52:06;16.40;91.10
25108;DHT22;13090;53.422;7.670;2022-09-09T05:57:32;16.50;91.20
25108;DHT22;13090;53.422;7.670;2022-09-09T06:02:36;16.50;91.00
25108;DHT22;13090;53.422;7.670;2022-09-09T06:07:39;16.50;91.00
25108;DHT22;13090;53.422;7.670;2022-09-09T06:12:42;16.50;91.00
25108;DHT22;13090;53.422;7.670;2022-09-09T06:17:46;16.50;91.00
25108;DHT22;13090;53.422;7.670;2022-09-09T06:22:49;16.50;91.00
25108;DHT22;13090;53.422;7.670;2022-09-09T06:27:51;16.50;91.00
25108;DHT22;13090;53.422;7.670;2022-09-09T06:32:59;16.50;91.00
25108;DHT22;13090;53.422;7.670;2022-09-09T06:38:02;16.50;91.10
25108;DHT22;13090;53.422;7.670;2022-09-09T06:43:05;16.50;91.00
25108;DHT22;13090;53.422;7.670;2022-09-09T06:48:09;16.60;91.10
25108;DHT22;13090;53.422;7.670;2022-09-09T06:53:12;16.60;91.10
25108;DHT22;13090;53.422;7.670;2022-09-09T06:58:18;16.60;91.10
25108;DHT22;13090;53.422;7.670;2022-09-09T07:03:22;16.60;91.10
25108;DHT22;13090;53.422;7.670;2022-09-09T07:08:25;16.70;91.20
25108;DHT22;13090;53.422;7.670;2022-09-09T07:13:28;16.80;91.20
25108;DHT22;13090;53.422;7.670;2022-09-09T07:18:32;16.80;91.20
25108;DHT22;13090;53.422;7.670;2022-09-09T07:23:35;17.00;91.30
25108;DHT22;13090;53.422;7.670;2022-09-09T07:28:38;17.00;91.20
25108;DHT22;13090;53.422;7.670;2022-09-09T07:33:43;17.20;91.20
25108;DHT22;13090;53.422;7.670;2022-09-09T07:38:48;17.30;91.20
25108;DHT22;13090;53.422;7.670;2022-09-09T07:43:55;17.40;91.10
25108;DHT22;13090;53.422;7.670;2022-09-09T07:49:09;17.50;91.20
25108;DHT22;13090;53.422;7.670;2022-09-09T07:54:14;17.60;91.10
25108;DHT22;13090;53.422;7.670;2022-09-09T07:59:18;17.70;91.00
25108;DHT22;13090;53.422;7.670;2022-09-09T08:04:25;17.80;90.90
25108;DHT22;13090;53.422;7.670;2022-09-09T08:09:32;17.90;91.00
25108;DHT22;13090;53.422;7.670;2022-09-09T08:14:47;18.10;91.10
25108;DHT22;13090;53.422;7.670;2022-09-09T08:20:08;18.30;90.90
25108;DHT22;13090;53.422;7.670;2022-09-09T08:25:12;18.40;90.80
25108;DHT22;13090;53.422;7.670;2022-09-09T08:30:14;18.50;90.70
25108;DHT22;13090;53.422;7.670;2022-09-09T08:35:19;18.60;90.70
25108;DHT22;13090;53.422;7.670;2022-09-09T08:40:29;18.70;90.70
25108;DHT22;13090;53.422;7.670;2022-09-09T08:45:44;19.00;90.80
25108;DHT22;13090;53.422;7.670;2022-09-09T08:56:59;20.50;91.10
25108;DHT22;13090;53.422;7.670;2022-09-09T09:02:07;21.80;91.30
25108;DHT22;13090;53.422;7.670;2022-09-09T09:07:52;22.80;89.30
25108;DHT22;13090;53.422;7.670;2022-09-09T09:25:13;24.60;81.20
25108;DHT22;13090;53.422;7.670;2022-09-09T09:30:20;25.10;78.40
25108;DHT22;13090;53.422;7.670;2022-09-09T09:35:31;25.40;78.40
25108;DHT22;13090;53.422;7.670;2022-09-09T09:40:49;25.70;77.30
25108;DHT22;13090;53.422;7.670;2022-09-09T09:45:52;25.90;74.20
25108;DHT22;13090;53.422;7.670;2022-09-09T09:51:18;25.80;75.10
25108;DHT22;13090;53.422;7.670;2022-09-09T09:56:29;25.80;73.70
25108;DHT22;13090;53.422;7.670;2022-09-09T10:01:33;25.80;74.30
25108;DHT22;13090;53.422;7.670;2022-09-09T10:06:37;26.10;74.60
25108;DHT22;13090;53.422;7.670;2022-09-09T10:11:46;26.30;73.10
25108;DHT22;13090;53.422;7.670;2022-09-09T10:17:03;26.30;69.40
25108;DHT22;13090;53.422;7.670;2022-09-09T10:22:11;26.20;68.60
25108;DHT22;13090;53.422;7.670;2022-09-09T10:27:21;26.00;71.40
25108;DHT22;13090;53.422;7.670;2022-09-09T10:32:46;25.80;69.60
25108;DHT22;13090;53.422;7.670;2022-09-09T10:38:03;25.70;69.50
25108;DHT22;13090;53.422;7.670;2022-09-09T10:43:17;25.60;67.60
25108;DHT22;13090;53.422;7.670;2022-09-09T10:48:40;25.40;69.10
25108;DHT22;13090;53.422;7.670;2022-09-09T10:53:53;25.40;70.50
25108;DHT22;13090;53.422;7.670;2022-09-09T10:59:04;25.80;69.70
25108;DHT22;13090;53.422;7.670;2022-09-09T11:04:17;26.00;67.10
25108;DHT22;13090;53.422;7.670;2022-09-09T11:09:25;25.90;68.80
25108;DHT22;13090;53.422;7.670;2022-09-09T11:14:38;26.00;69.40
25108;DHT22;13090;53.422;7.670;2022-09-09T11:19:44;26.30;69.10
25108;DHT22;13090;53.422;7.670;2022-09-09T11:24:51;26.40;68.20
25108;DHT22;13090;53.422;7.670;2022-09-09T11:30:32;26.10;66.90
25108;DHT22;13090;53.422;7.670;2022-09-09T11:36:22;25.70;66.50
25108;DHT22;13090;53.422;7.670;2022-09-09T11:41:34;25.20;67.40
25108;DHT22;13090;53.422;7.670;2022-09-09T11:46:41;24.70;68.30
25108;DHT22;13090;53.422;7.670;2022-09-09T11:51:44;24.20;70.00
25108;DHT22;13090;53.422;7.670;2022-09-09T11:56:47;23.90;72.40
25108;DHT22;13090;53.422;7.670;2022-09-09T12:01:55;24.00;73.50
25108;DHT22;13090;53.422;7.670;2022-09-09T12:07:03;24.40;73.10
25108;DHT22;13090;53.422;7.670;2022-09-09T12:12:26;24.70;72.40
25108;DHT22;13090;53.422;7.670;2022-09-09T12:17:41;24.70;71.00
25108;DHT22;13090;53.422;7.670;2022-09-09T12:23:18;24.80;70.70
25108;DHT22;13090;53.422;7.670;2022-09-09T12:28:30;25.10;71.00
25108;DHT22;13090;53.422;7.670;2022-09-09T12:33:40;25.50;70.20
25108;DHT22;13090;53.422;7.670;2022-09-09T12:38:44;25.40;66.50
25108;DHT22;13090;53.422;7.670;2022-09-09T12:43:47;25.10;68.40
25108;DHT22;13090;53.422;7.670;2022-09-09T12:48:51;24.90;68.60
25108;DHT22;13090;53.422;7.670;2022-09-09T12:53:56;24.50;69.10
25108;DHT22;13090;53.422;7.670;2022-09-09T12:59:00;24.20;70.20
25108;DHT22;13090;53.422;7.670;2022-09-09T13:04:20;24.20;72.10
25108;DHT22;13090;53.422;7.670;2022-09-09T13:09:23;24.30;68.50
25108;DHT22;13090;53.422;7.670;2022-09-09T13:14:29;24.20;68.40
25108;DHT22;13090;53.422;7.670;2022-09-09T13:19:37;24.00;69.50
25108;DHT22;13090;53.422;7.670;2022-09-09T13:24:40;23.90;70.00
25108;DHT22;13090;53.422;7.670;2022-09-09T13:29:51;23.80;70.70
25108;DHT22;13090;53.422;7.670;2022-09-09T13:35:02;23.60;71.10
25108;DHT22;13090;53.422;7.670;2022-09-09T13:40:19;23.30;71.50
25108;DHT22;13090;53.422;7.670;2022-09-09T13:45:27;23.00;73.00
25108;DHT22;13090;53.422;7.670;2022-09-09T13:50:32;22.80;74.20
25108;DHT22;13090;53.422;7.670;2022-09-09T13:55:36;22.60;73.80
25108;DHT22;13090;53.422;7.670;2022-09-09T14:00:40;22.50;75.10
25108;DHT22;13090;53.422;7.670;2022-09-09T14:05:46;22.60;75.20
25108;DHT22;13090;53.422;7.670;2022-09-09T14:10:49;22.60;74.70
25108;DHT22;13090;53.422;7.670;2022-09-09T14:15:52;22.60;73.90
25108;DHT22;13090;53.422;7.670;2022-09-09T14:20:57;22.50;72.50
25108;DHT22;13090;53.422;7.670;2022-09-09T14:26:00;22.50;71.60
25108;DHT22;13090;53.422;7.670;2022-09-09T14:31:03;22.40;72.40
25108;DHT22;13090;53.422;7.670;2022-09-09T14:36:09;22.40;72.00
25108;DHT22;13090;53.422;7.670;2022-09-09T14:41:15;22.40;72.80
25108;DHT22;13090;53.422;7.670;2022-09-09T14:46:19;22.30;72.40
25108;DHT22;13090;53.422;7.670;2022-09-09T14:51:25;22.30;72.10
25108;DHT22;13090;53.422;7.670;2022-09-09T14:56:30;22.20;72.20
25108;DHT22;13090;53.422;7.670;2022-09-09T15:01:33;22.10;72.50
25108;DHT22;13090;53.422;7.670;2022-09-09T15:06:38;22.00;72.70
25108;DHT22;13090;53.422;7.670;2022-09-09T15:11:41;22.00;72.60
25108;DHT22;13090;53.422;7.670;2022-09-09T15:16:43;21.90;72.60
25108;DHT22;13090;53.422;7.670;2022-09-09T15:21:48;21.80;73.00
25108;DHT22;13090;53.422;7.670;2022-09-09T15:26:51;21.70;73.50
25108;DHT22;13090;53.422;7.670;2022-09-09T15:31:54;21.60;73.70
25108;DHT22;13090;53.422;7.670;2022-09-09T15:36:59;21.60;74.50
25108;DHT22;13090;53.422;7.670;2022-09-09T15:42:04;21.40;76.40
25108;DHT22;13090;53.422;7.670;2022-09-09T15:47:07;21.00;76.10
25108;DHT22;13090;53.422;7.670;2022-09-09T15:52:16;20.60;77.90
25108;DHT22;13090;53.422;7.670;2022-09-09T15:57:24;20.40;79.70
25108;DHT22;13090;53.422;7.670;2022-09-09T16:02:35;20.30;79.60
25108;DHT22;13090;53.422;7.670;2022-09-09T16:07:47;20.20;80.60
25108;DHT22;13090;53.422;7.670;2022-09-09T16:12:54;20.20;80.80
25108;DHT22;13090;53.422;7.670;2022-09-09T16:18:00;20.20;81.40
25108;DHT22;13090;53.422;7.670;2022-09-09T16:23:06;20.30;81.80
25108;DHT22;13090;53.422;7.670;2022-09-09T16:28:10;20.40;82.30
25108;DHT22;13090;53.422;7.670;2022-09-09T16:33:18;20.50;83.00
25108;DHT22;13090;53.422;7.670;2022-09-09T16:38:28;20.50;82.30
25108;DHT22;13090;53.422;7.670;2022-09-09T16:43:37;20.60;82.90
25108;DHT22;13090;53.422;7.670;2022-09-09T16:48:47;20.50;82.30
25108;DHT22;13090;53.422;7.670;2022-09-09T16:53:57;20.30;82.10
25108;DHT22;13090;53.422;7.670;2022-09-09T16:59:04;20.20;83.00
25108;DHT22;13090;53.422;7.670;2022-09-09T17:04:10;20.10;83.10
25108;DHT22;13090;53.422;7.670;2022-09-09T17:09:18;20.00;83.80
25108;DHT22;13090;53.422;7.670;2022-09-09T17:14:32;19.80;84.20
25108;DHT22;13090;53.422;7.670;2022-09-09T17:19:38;19.70;84.10
25108;DHT22;13090;53.422;7.670;2022-09-09T17:25:07;19.60;84.20
25108;DHT22;13090;53.422;7.670;2022-09-09T17:30:20;19.60;85.00
25108;DHT22;13090;53.422;7.670;2022-09-09T17:38:36;19.60;84.00
25108;DHT22;13090;53.422;7.670;2022-09-09T17:43:40;19.40;84.70
25108;DHT22;13090;53.422;7.670;2022-09-09T17:48:44;19.40;84.80
25108;DHT22;13090;53.422;7.670;2022-09-09T17:53:50;19.40;84.60
25108;DHT22;13090;53.422;7.670;2022-09-09T17:58:53;19.30;84.80
25108;DHT22;13090;53.422;7.670;2022-09-09T18:03:58;19.30;84.80
25108;DHT22;13090;53.422;7.670;2022-09-09T18:09:05;19.20;85.20
25108;DHT22;13090;53.422;7.670;2022-09-09T18:14:12;19.10;85.40
25108;DHT22;13090;53.422;7.670;2022-09-09T18:19:21;19.00;85.30
25108;DHT22;13090;53.422;7.670;2022-09-09T18:30:38;19.00;85.90
25108;DHT22;13090;53.422;7.670;2022-09-09T18:35:41;18.90;85.40
25108;DHT22;13090;53.422;7.670;2022-09-09T18:40:45;18.80;85.30
25108;DHT22;13090;53.422;7.670;2022-09-09T18:45:49;18.80;85.40
25108;DHT22;13090;53.422;7.670;2022-09-09T18:50:53;18.70;85.30
25108;DHT22;13090;53.422;7.670;2022-09-09T18:56:00;18.60;85.50
25108;DHT22;13090;53.422;7.670;2022-09-09T19:01:09;18.50;85.80
25108;DHT22;13090;53.422;7.670;2022-09-09T19:06:14;18.40;85.90
25108;DHT22;13090;53.422;7.670;2022-09-09T19:11:19;18.40;86.10
25108;DHT22;13090;53.422;7.670;2022-09-09T19:16:24;18.30;85.60
25108;DHT22;13090;53.422;7.670;2022-09-09T19:21:34;18.30;85.80
25108;DHT22;13090;53.422;7.670;2022-09-09T19:26:41;18.20;86.00
25108;DHT22;13090;53.422;7.670;2022-09-09T19:31:46;18.10;85.70
25108;DHT22;13090;53.422;7.670;2022-09-09T19:37:09;18.00;85.80
25108;DHT22;13090;53.422;7.670;2022-09-09T19:42:15;17.90;85.50
25108;DHT22;13090;53.422;7.670;2022-09-09T19:47:20;17.90;85.70
25108;DHT22;13090;53.422;7.670;2022-09-09T19:52:23;17.80;86.10
25108;DHT22;13090;53.422;7.670;2022-09-09T19:57:27;17.70;86.00
25108;DHT22;13090;53.422;7.670;2022-09-09T20:02:31;17.60;86.10
25108;DHT22;13090;53.422;7.670;2022-09-09T20:07:34;17.60;86.40
25108;DHT22;13090;53.422;7.670;2022-09-09T20:12:38;17.50;86.60
25108;DHT22;13090;53.422;7.670;2022-09-09T20:17:43;17.50;86.70
25108;DHT22;13090;53.422;7.670;2022-09-09T20:22:49;17.40;87.00
25108;DHT22;13090;53.422;7.670;2022-09-09T20:27:53;17.40;87.60
25108;DHT22;13090;53.422;7.670;2022-09-09T20:33:03;17.40;88.70
25108;DHT22;13090;53.422;7.670;2022-09-09T20:38:06;17.30;87.30
25108;DHT22;13090;53.422;7.670;2022-09-09T20:43:10;17.30;87.30
25108;DHT22;13090;53.422;7.670;2022-09-09T20:48:15;17.30;87.40
25108;DHT22;13090;53.422;7.670;2022-09-09T20:53:18;17.30;87.70
25108;DHT22;13090;53.422;7.670;2022-09-09T20:58:22;17.20;87.60
25108;DHT22;13090;53.422;7.670;2022-09-09T21:03:27;17.10;88.10
25108;DHT22;13090;53.422;7.670;2022-09-09T21:08:30;17.10;88.50
25108;DHT22;13090;53.422;7.670;2022-09-09T21:13:35;17.10;88.80
25108;DHT22;13090;53.422;7.670;2022-09-09T21:18:41;17.00;89.20
25108;DHT22;13090;53.422;7.670;2022-09-09T21:23:45;17.00;89.70
25108;DHT22;13090;53.422;7.670;2022-09-09T21:28:47;17.00;89.70
25108;DHT22;13090;53.422;7.670;2022-09-09T21:33:55;17.00;90.00
25108;DHT22;13090;53.422;7.670;2022-09-09T21:38:58;17.00;90.50
25108;DHT22;13090;53.422;7.670;2022-09-09T21:44:01;17.10;89.60
25108;DHT22;13090;53.422;7.670;2022-09-09T21:49:05;17.10;89.60
25108;DHT22;13090;53.422;7.670;2022-09-09T21:54:08;17.20;89.70
25108;DHT22;13090;53.422;7.670;2022-09-09T21:59:11;17.20;89.70
25108;DHT22;13090;53.422;7.670;2022-09-09T22:04:15;17.20;89.50
25108;DHT22;13090;53.422;7.670;2022-09-09T22:09:18;17.20;89.10
25108;DHT22;13090;53.422;7.670;2022-09-09T22:14:21;17.30;89.30
25108;DHT22;13090;53.422;7.670;2022-09-09T22:19:26;17.30;89.10
25108;DHT22;13090;53.422;7.670;2022-09-09T22:24:28;17.20;89.10
25108;DHT22;13090;53.422;7.670;2022-09-09T22:29:31;17.20;88.70
25108;DHT22;13090;53.422;7.670;2022-09-09T22:34:35;17.20;88.80
25108;DHT22;13090;53.422;7.670;2022-09-09T22:39:38;17.20;88.90
25108;DHT22;13090;53.422;7.670;2022-09-09T22:44:41;17.10;88.60
25108;DHT22;13090;53.422;7.670;2022-09-09T22:49:45;17.10;88.50
25108;DHT22;13090;53.422;7.670;2022-09-09T22:54:48;17.10;88.70
25108;DHT22;13090;53.422;7.670;2022-09-09T22:59:52;17.00;88.60
25108;DHT22;13090;53.422;7.670;2022-09-09T23:04:56;17.00;88.70
25108;DHT22;13090;53.422;7.670;2022-09-09T23:09:58;17.00;88.80
25108;DHT22;13090;53.422;7.670;2022-09-09T23:15:01;17.00;88.70
25108;DHT22;13090;53.422;7.670;2022-09-09T23:20:07;17.00;88.70
25108;DHT22;13090;53.422;7.670;2022-09-09T23:25:10;16.90;88.90
25108;DHT22;13090;53.422;7.670;2022-09-09T23:30:13;16.90;88.80
25108;DHT22;13090;53.422;7.670;2022-09-09T23:35:18;16.80;88.80
25108;DHT22;13090;53.422;7.670;2022-09-09T23:40:21;16.90;89.00
25108;DHT22;13090;53.422;7.670;2022-09-09T23:45:23;16.90;89.00
25108;DHT22;13090;53.422;7.670;2022-09-09T23:50:28;16.80;88.90
25108;DHT22;13090;53.422;7.670;2022-09-09T23:55:30;16.80;88.80
